createdAt,value
2023-01-29T00:00:18.615Z,100352.97
2023-01-29T00:03:06.201Z,100365.56
2023-01-29T00:05:35.469Z,100366.88
2023-01-29T00:08:02.866Z,100370.63
2023-01-29T00:10:30.488Z,100368.16
2023-01-29T00:12:57.701Z,100372.31
2023-01-29T00:15:25.215Z,100364.94
2023-01-29T00:17:52.387Z,100371.00
2023-01-29T00:20:20.187Z,100361.19
2023-01-29T00:22:47.713Z,100368.31
2023-01-29T00:25:21.363Z,100345.13
2023-01-29T00:27:48.931Z,100372.19
2023-01-29T00:30:20.105Z,100377.00
2023-01-29T00:32:48.706Z,100391.31
2023-01-29T00:35:19.956Z,100392.03
2023-01-29T00:37:47.374Z,100393.44
2023-01-29T00:40:17.491Z,100395.63
2023-01-29T00:43:05.837Z,100389.38
2023-01-29T00:45:36.824Z,100385.25
2023-01-29T00:48:06.993Z,100401.31
2023-01-29T00:50:34.471Z,100394.69
2023-01-29T00:53:01.693Z,100387.66
2023-01-29T00:55:30.694Z,100388.75
2023-01-29T00:57:57.954Z,100402.75
2023-01-29T01:00:25.932Z,100400.38
2023-01-29T01:03:08.353Z,100408.19
2023-01-29T01:05:39.241Z,100403.38
2023-01-29T01:08:29.352Z,100399.28
2023-01-29T01:11:06.279Z,100401.44
2023-01-29T01:13:34.384Z,100379.19
2023-01-29T01:16:02.466Z,100409.91
2023-01-29T01:18:31.201Z,100407.25
2023-01-29T01:20:59.800Z,100412.06
2023-01-29T01:23:28.686Z,100416.06
2023-01-29T01:25:56.359Z,100405.06
2023-01-29T01:28:23.711Z,100405.06
2023-01-29T01:30:51.243Z,100404.00
2023-01-29T01:33:18.617Z,100399.28
2023-01-29T01:35:46.152Z,100397.78
2023-01-29T01:38:13.330Z,100395.50
2023-01-29T01:40:46.552Z,100395.03
2023-01-29T01:43:14.053Z,100404.09
2023-01-29T01:45:46.725Z,100398.53
2023-01-29T01:48:27.083Z,100399.75
2023-01-29T01:51:03.862Z,100388.38
2023-01-29T01:53:40.842Z,100401.44
2023-01-29T01:56:23.818Z,100398.03
2023-01-29T01:58:55.181Z,100394.69
2023-01-29T02:01:28.470Z,100407.97
2023-01-29T02:04:45.546Z,100398.03
2023-01-29T02:07:33.806Z,100412.75
2023-01-29T02:10:08.882Z,100405.78
2023-01-29T02:12:38.287Z,100404.34
2023-01-29T02:15:06.542Z,100389.13
2023-01-29T02:17:34.256Z,100412.94
2023-01-29T02:20:26.010Z,100407.72
2023-01-29T02:22:56.550Z,100400.47
2023-01-29T02:26:24.833Z,100385.50
2023-01-29T02:28:57.246Z,100406.63
2023-01-29T02:31:28.353Z,100404.69
2023-01-29T02:34:00.030Z,100408.72
2023-01-29T02:36:30.194Z,100407.63
2023-01-29T02:39:35.588Z,100417.75
2023-01-29T02:42:21.025Z,100415.94
2023-01-29T02:45:42.226Z,100420.91
2023-01-29T02:48:21.903Z,100422.63
2023-01-29T02:51:06.116Z,100429.25
2023-01-29T02:53:41.297Z,100425.38
2023-01-29T02:56:18.098Z,100426.09
2023-01-29T02:58:55.971Z,100431.91
2023-01-29T03:01:31.727Z,100424.28
2023-01-29T03:04:11.203Z,100431.91
2023-01-29T03:06:45.555Z,100431.78
2023-01-29T03:09:36.670Z,100422.13
2023-01-29T03:12:29.348Z,100423.81
2023-01-29T03:15:12.839Z,100423.19
2023-01-29T03:17:56.895Z,100431.66
2023-01-29T03:20:29.884Z,100432.16
2023-01-29T03:23:03.015Z,100435.53
2023-01-29T03:25:54.391Z,100437.00
2023-01-29T03:28:43.734Z,100441.22
2023-01-29T03:31:33.237Z,100433.00
2023-01-29T03:34:24.838Z,100437.00
2023-01-29T03:36:55.938Z,100445.34
2023-01-29T03:39:28.645Z,100439.28
2023-01-29T03:42:19.091Z,100440.88
2023-01-29T03:44:50.045Z,100439.66
2023-01-29T03:47:34.833Z,100435.75
2023-01-29T03:50:28.782Z,100439.41
2023-01-29T03:53:21.896Z,100444.25
2023-01-29T03:56:31.809Z,100447.63
2023-01-29T03:59:12.060Z,100449.91
2023-01-29T04:02:10.207Z,100445.94
2023-01-29T04:04:41.950Z,100441.09
2023-01-29T04:07:17.845Z,100437.72
2023-01-29T04:09:53.942Z,100448.81
2023-01-29T04:12:29.759Z,100449.09
2023-01-29T04:15:01.853Z,100454.53
2023-01-29T04:17:40.770Z,100461.66
2023-01-29T04:20:20.184Z,100448.13
2023-01-29T04:22:50.573Z,100451.50
2023-01-29T04:25:30.873Z,100455.13
2023-01-29T04:28:14.386Z,100450.06
2023-01-29T04:31:03.922Z,100452.09
2023-01-29T04:33:40.255Z,100454.16
2023-01-29T04:36:21.891Z,100449.56
2023-01-29T04:38:59.942Z,100457.78
2023-01-29T04:41:43.039Z,100459.72
2023-01-29T04:44:10.689Z,100459.25
2023-01-29T04:47:11.866Z,100460.34
2023-01-29T04:49:47.587Z,100455.59
2023-01-29T04:52:34.330Z,100457.31
2023-01-29T04:55:10.391Z,100462.59
2023-01-29T04:57:51.495Z,100464.91
2023-01-29T05:00:33.022Z,100461.66
2023-01-29T05:03:03.080Z,100467.69
2023-01-29T05:05:31.136Z,100468.91
2023-01-29T05:07:59.913Z,100468.19
2023-01-29T05:10:29.793Z,100479.06
2023-01-29T05:13:04.068Z,100473.84
2023-01-29T05:15:41.376Z,100476.88
2023-01-29T05:18:09.222Z,100490.19
2023-01-29T05:20:42.885Z,100491.16
2023-01-29T05:23:21.908Z,100495.50
2023-01-29T05:25:50.838Z,100488.47
2023-01-29T05:28:18.165Z,100489.53
2023-01-29T05:30:51.455Z,100494.41
2023-01-29T05:33:23.104Z,100503.47
2023-01-29T05:35:50.933Z,100497.91
2023-01-29T05:38:19.230Z,100496.34
2023-01-29T05:40:47.111Z,100503.22
2023-01-29T05:43:23.032Z,100505.88
2023-01-29T05:45:55.348Z,100505.50
2023-01-29T05:48:23.387Z,100511.66
2023-01-29T05:50:52.156Z,100511.72
2023-01-29T05:53:19.697Z,100519.31
2023-01-29T05:55:48.194Z,100515.22
2023-01-29T05:58:15.394Z,100515.81
2023-01-29T06:00:44.343Z,100514.63
2023-01-29T06:03:11.848Z,100512.06
2023-01-29T06:05:39.890Z,100515.09
2023-01-29T06:08:10.000Z,100509.06
2023-01-29T06:10:38.192Z,100513.91
2023-01-29T06:13:05.422Z,100528.03
2023-01-29T06:15:32.906Z,100529.38
2023-01-29T06:18:00.839Z,100528.41
2023-01-29T06:20:29.186Z,100535.06
2023-01-29T06:22:56.453Z,100534.00
2023-01-29T06:25:23.992Z,100534.34
2023-01-29T06:27:51.748Z,100540.75
2023-01-29T06:30:19.511Z,100535.69
2023-01-29T06:32:50.749Z,100541.38
2023-01-29T06:35:19.231Z,100545.09
2023-01-29T06:37:46.502Z,100543.41
2023-01-29T06:40:16.067Z,100552.88
2023-01-29T06:43:03.092Z,100548.25
2023-01-29T06:45:30.887Z,100538.31
2023-01-29T06:48:00.471Z,100558.03
2023-01-29T06:50:34.326Z,100560.72
2023-01-29T06:53:02.409Z,100559.22
2023-01-29T06:55:31.179Z,100570.84
2023-01-29T06:57:59.324Z,100570.97
2023-01-29T07:00:27.029Z,100575.47
2023-01-29T07:02:54.411Z,100569.88
2023-01-29T07:05:22.007Z,100580.16
2023-01-29T07:07:49.500Z,100575.16
2023-01-29T07:10:17.363Z,100577.50
2023-01-29T07:12:44.656Z,100587.19
2023-01-29T07:15:19.700Z,100584.41
2023-01-29T07:18:04.130Z,100584.75
2023-01-29T07:20:32.129Z,100589.34
2023-01-29T07:22:59.610Z,100592.31
2023-01-29T07:25:27.354Z,100591.19
2023-01-29T07:27:54.685Z,100596.28
2023-01-29T07:30:22.642Z,100586.19
2023-01-29T07:32:51.126Z,100593.13
2023-01-29T07:35:18.765Z,100588.88
2023-01-29T07:37:53.451Z,100592.50
2023-01-29T07:40:22.409Z,100593.91
2023-01-29T07:42:49.828Z,100589.63
2023-01-29T07:45:17.314Z,100585.50
2023-01-29T07:47:44.522Z,100584.84
2023-01-29T07:50:12.199Z,100601.09
2023-01-29T07:52:39.505Z,100591.94
2023-01-29T07:55:07.371Z,100597.22
2023-01-29T07:57:34.663Z,100590.78
2023-01-29T08:00:04.156Z,100600.50
2023-01-29T08:02:39.859Z,100605.22
2023-01-29T08:05:09.083Z,100595.91
2023-01-29T08:07:37.755Z,100605.47
2023-01-29T08:10:05.718Z,100605.09
2023-01-29T08:12:33.053Z,100586.09
2023-01-29T08:15:00.605Z,100603.06
2023-01-29T08:17:29.238Z,100602.22
2023-01-29T08:19:56.895Z,100623.78
2023-01-29T08:22:24.773Z,100618.44
2023-01-29T08:24:53.988Z,100616.13
2023-01-29T08:27:27.054Z,100618.66
2023-01-29T08:29:55.992Z,100617.78
2023-01-29T08:32:23.160Z,100630.28
2023-01-29T08:34:50.645Z,100632.72
2023-01-29T08:37:23.211Z,100628.59
2023-01-29T08:39:53.000Z,100633.34
2023-01-29T08:42:30.410Z,100612.38
2023-01-29T08:44:59.700Z,100638.13
2023-01-29T08:47:29.791Z,100640.97
2023-01-29T08:50:01.756Z,100646.53
2023-01-29T08:52:31.839Z,100633.94
2023-01-29T08:55:00.666Z,100639.03
2023-01-29T08:57:33.405Z,100638.06
2023-01-29T09:00:01.305Z,100643.03
2023-01-29T09:02:28.615Z,100638.28
2023-01-29T09:04:56.427Z,100641.69
2023-01-29T09:07:24.067Z,100639.97
2023-01-29T09:09:51.655Z,100643.41
2023-01-29T09:12:19.015Z,100642.88
2023-01-29T09:14:46.555Z,100642.59
2023-01-29T09:17:21.518Z,100645.66
2023-01-29T09:19:53.256Z,100641.78
2023-01-29T09:22:21.028Z,100649.66
2023-01-29T09:24:53.655Z,100648.56
2023-01-29T09:27:36.801Z,100646.84
2023-01-29T09:30:17.606Z,100640.09
2023-01-29T09:33:06.715Z,100644.19
2023-01-29T09:35:37.621Z,100645.56
2023-01-29T09:38:12.914Z,100634.91
2023-01-29T09:41:22.558Z,100631.03
2023-01-29T09:43:58.228Z,100632.59
2023-01-29T09:47:15.052Z,100636.34
2023-01-29T09:50:15.419Z,100638.03
2023-01-29T09:53:17.426Z,100626.56
2023-01-29T09:56:16.511Z,100627.56
2023-01-29T09:58:56.982Z,100628.44
2023-01-29T10:01:46.799Z,100635.13
2023-01-29T10:04:46.526Z,100622.03
2023-01-29T10:07:43.201Z,100617.34
2023-01-29T10:10:58.622Z,100618.00
2023-01-29T10:13:52.475Z,100615.78
2023-01-29T10:17:16.336Z,100607.25
2023-01-29T10:20:19.040Z,100611.81
2023-01-29T10:23:09.113Z,100612.28
2023-01-29T10:25:46.495Z,100605.38
2023-01-29T10:28:28.963Z,100614.72
2023-01-29T10:31:05.386Z,100615.34
2023-01-29T10:33:49.673Z,100602.19
2023-01-29T10:36:45.156Z,100587.91
2023-01-29T10:39:20.693Z,100597.81
2023-01-29T10:42:12.690Z,100595.41
2023-01-29T10:45:01.862Z,100601.16
2023-01-29T10:47:52.821Z,100591.81
2023-01-29T10:50:39.309Z,100597.16
2023-01-29T10:53:37.806Z,100583.81
2023-01-29T10:56:26.921Z,100583.91
2023-01-29T10:58:59.607Z,100582.72
2023-01-29T11:01:27.461Z,100572.69
2023-01-29T11:04:06.758Z,100587.41
2023-01-29T11:06:36.399Z,100571.31
2023-01-29T11:09:35.530Z,100582.31
2023-01-29T11:12:16.755Z,100580.44
2023-01-29T11:15:18.182Z,100569.91
2023-01-29T11:18:10.563Z,100573.31
2023-01-29T11:21:02.994Z,100573.00
2023-01-29T11:23:34.067Z,100568.91
2023-01-29T11:26:05.012Z,100567.69
2023-01-29T11:28:48.011Z,100567.47
2023-01-29T11:31:18.392Z,100561.72
2023-01-29T11:33:46.726Z,100573.97
2023-01-29T11:36:38.705Z,100544.84
2023-01-29T11:39:08.574Z,100576.69
2023-01-29T11:42:05.457Z,100585.50
2023-01-29T11:44:37.126Z,100581.41
2023-01-29T11:47:20.524Z,100577.19
2023-01-29T11:50:04.135Z,100580.06
2023-01-29T11:52:49.697Z,100580.91
2023-01-29T11:55:50.296Z,100588.13
2023-01-29T11:58:36.879Z,100562.22
2023-01-29T12:01:32.562Z,100581.84
2023-01-29T12:04:30.332Z,100576.38
2023-01-29T12:07:15.041Z,100575.72
2023-01-29T12:09:57.977Z,100570.09
2023-01-29T12:12:44.428Z,100580.00
2023-01-29T12:15:26.412Z,100549.91
2023-01-29T12:18:11.750Z,100564.47
2023-01-29T12:21:05.647Z,100572.81
2023-01-29T12:24:08.871Z,100572.28
2023-01-29T12:27:09.332Z,100575.84
2023-01-29T12:29:55.057Z,100563.38
2023-01-29T12:33:18.344Z,100568.72
2023-01-29T12:36:02.377Z,100571.66
2023-01-29T12:38:42.876Z,100575.06
2023-01-29T12:41:48.006Z,100569.66
2023-01-29T12:44:29.286Z,100569.81
2023-01-29T12:47:09.259Z,100564.84
2023-01-29T12:49:48.528Z,100577.53
2023-01-29T12:53:01.370Z,100572.16
2023-01-29T12:55:49.189Z,100568.06
2023-01-29T12:59:05.348Z,100580.28
2023-01-29T13:01:59.980Z,100570.97
2023-01-29T13:04:40.796Z,100578.22
2023-01-29T13:07:21.003Z,100587.91
2023-01-29T13:10:30.082Z,100573.66
2023-01-29T13:13:33.789Z,100573.78
2023-01-29T13:16:40.884Z,100580.47
2023-01-29T13:19:41.109Z,100584.78
2023-01-29T13:22:49.122Z,100580.06
2023-01-29T13:25:23.107Z,100569.19
2023-01-29T13:27:54.099Z,100570.84
2023-01-29T13:30:33.446Z,100574.34
2023-01-29T13:33:15.032Z,100576.44
2023-01-29T13:35:53.484Z,100569.41
2023-01-29T13:38:36.778Z,100511.63
2023-01-29T13:41:43.974Z,100577.13
2023-01-29T13:44:44.541Z,100573.94
2023-01-29T13:47:32.191Z,100572.06
2023-01-29T13:50:35.446Z,100574.81
2023-01-29T13:53:40.483Z,100575.38
2023-01-29T13:56:41.504Z,100581.69
2023-01-29T13:59:54.489Z,100582.59
2023-01-29T14:02:32.617Z,100589.22
2023-01-29T14:05:41.931Z,100590.03
2023-01-29T14:08:38.558Z,100589.03
2023-01-29T14:11:49.444Z,100581.50
2023-01-29T14:15:02.250Z,100592.16
2023-01-29T14:17:37.575Z,100584.66
2023-01-29T14:20:45.843Z,100598.53
2023-01-29T14:23:53.961Z,100597.06
2023-01-29T14:26:40.694Z,100602.84
2023-01-29T14:29:48.268Z,100592.25
2023-01-29T14:32:32.692Z,100581.84
2023-01-29T14:35:33.774Z,100590.13
2023-01-29T14:38:07.558Z,100595.28
2023-01-29T14:40:41.334Z,100583.28
2023-01-29T14:43:27.798Z,100602.00
2023-01-29T14:46:38.610Z,100598.81
2023-01-29T14:49:16.373Z,100571.78
2023-01-29T14:51:48.259Z,100589.91
2023-01-29T14:54:41.183Z,100591.06
2023-01-29T14:57:40.156Z,100586.16
2023-01-29T15:07:37.209Z,100590.34
2023-01-29T15:11:09.980Z,100591.16
2023-01-29T15:14:31.706Z,100585.25
2023-01-29T15:17:49.474Z,100594.31
2023-01-29T15:20:50.290Z,100594.56
2023-01-29T15:23:52.207Z,100586.50
2023-01-29T15:26:30.095Z,100582.13
2023-01-29T15:29:05.269Z,100590.41
2023-01-29T15:31:47.744Z,100580.41
2023-01-29T15:34:27.746Z,100577.84
2023-01-29T15:37:00.440Z,100578.22
2023-01-29T15:39:35.333Z,100571.47
2023-01-29T15:42:15.833Z,100578.91
2023-01-29T15:45:01.124Z,100577.34
2023-01-29T15:47:32.621Z,100555.59
2023-01-29T15:50:08.771Z,100570.63
2023-01-29T15:53:13.374Z,100577.41
2023-01-29T15:58:54.448Z,100576.38
2023-01-29T16:01:29.547Z,100577.41
2023-01-29T16:04:18.566Z,100577.47
2023-01-29T16:06:52.839Z,100580.13
2023-01-29T16:09:45.060Z,100588.97
2023-01-29T16:12:39.910Z,100589.72
2023-01-29T16:15:59.991Z,100586.72
2023-01-29T16:18:47.733Z,100591.56
2023-01-29T16:21:42.116Z,100563.59
2023-01-29T16:24:42.471Z,100580.28
2023-01-29T16:27:22.700Z,100582.72
2023-01-29T16:29:55.959Z,100574.00
2023-01-29T16:32:32.423Z,100573.38
2023-01-29T16:35:08.205Z,100571.72
2023-01-29T16:37:36.987Z,100571.31
2023-01-29T16:40:34.865Z,100575.09
2023-01-29T16:43:42.655Z,100581.50
2023-01-29T16:46:35.126Z,100583.63
2023-01-29T16:49:34.692Z,100578.16
2023-01-29T16:52:25.503Z,100568.41
2023-01-29T16:55:23.392Z,100572.97
2023-01-29T17:01:12.305Z,100575.69
2023-01-29T17:04:05.483Z,100564.41
2023-01-29T17:06:45.677Z,100570.31
2023-01-29T17:09:30.439Z,100559.69
2023-01-29T17:12:19.060Z,100566.38
2023-01-29T17:15:04.262Z,100568.66
2023-01-29T17:17:38.311Z,100554.38
2023-01-29T17:20:14.696Z,100553.41
2023-01-29T17:22:51.272Z,100556.06
2023-01-29T17:25:26.448Z,100552.41
2023-01-29T17:28:06.572Z,100556.84
2023-01-29T17:30:39.310Z,100563.47
2023-01-29T17:33:27.271Z,100569.81
2023-01-29T17:35:57.135Z,100564.06
2023-01-29T17:38:29.296Z,100568.25
2023-01-29T17:41:06.596Z,100578.00
2023-01-29T17:43:51.274Z,100567.28
2023-01-29T17:46:27.154Z,100575.38
2023-01-29T17:48:58.732Z,100577.81
2023-01-29T17:51:29.559Z,100572.34
2023-01-29T17:54:06.132Z,100575.84
2023-01-29T17:56:37.311Z,100574.66
2023-01-29T17:59:17.229Z,100578.31
2023-01-29T18:01:48.633Z,100583.63
2023-01-29T18:04:21.814Z,100566.72
2023-01-29T18:06:56.798Z,100568.78
2023-01-29T18:09:31.010Z,100570.16
2023-01-29T18:12:04.206Z,100572.22
2023-01-29T18:14:35.104Z,100570.31
2023-01-29T18:17:33.532Z,100567.91
2023-01-29T18:20:29.127Z,100568.72
2023-01-29T18:22:58.380Z,100567.63
2023-01-29T18:25:32.923Z,100559.56
2023-01-29T18:28:03.062Z,100570.94
2023-01-29T18:30:33.906Z,100574.47
2023-01-29T18:33:03.798Z,100570.16
2023-01-29T18:35:37.766Z,100556.97
2023-01-29T18:38:16.577Z,100565.34
2023-01-29T18:40:47.151Z,100580.34
2023-01-29T18:43:19.932Z,100573.13
2023-01-29T18:45:58.036Z,100572.56
2023-01-29T18:48:53.131Z,100570.84
2023-01-29T18:51:27.637Z,100563.66
2023-01-29T18:54:02.312Z,100560.50
2023-01-29T18:56:31.558Z,100552.34
2023-01-29T18:59:03.133Z,100568.09
2023-01-29T19:01:43.962Z,100578.25
2023-01-29T19:04:19.142Z,100563.50
2023-01-29T19:06:55.837Z,100567.88
2023-01-29T19:09:29.199Z,100570.75
2023-01-29T19:12:10.148Z,100575.34
2023-01-29T19:15:02.067Z,100563.41
2023-01-29T19:17:35.804Z,100579.72
2023-01-29T19:20:11.704Z,100563.50
2023-01-29T19:22:52.660Z,100564.00
2023-01-29T19:25:24.323Z,100567.38
2023-01-29T19:28:07.143Z,100562.28
2023-01-29T19:30:38.805Z,100559.38
2023-01-29T19:33:14.665Z,100560.09
2023-01-29T19:36:12.948Z,100559.75
2023-01-29T19:38:46.148Z,100558.44
2023-01-29T19:41:30.211Z,100561.66
2023-01-29T19:44:20.970Z,100538.84
2023-01-29T19:47:08.073Z,100563.50
2023-01-29T19:50:02.604Z,100576.31
2023-01-29T19:52:58.595Z,100561.34
2023-01-29T19:55:30.457Z,100558.44
2023-01-29T19:58:04.518Z,100567.50
2023-01-29T20:00:39.062Z,100564.97
2023-01-29T20:03:40.910Z,100574.13
2023-01-29T20:07:04.956Z,100579.69
2023-01-29T20:10:03.808Z,100585.03
2023-01-29T20:12:42.749Z,100586.97
2023-01-29T20:15:16.432Z,100584.31
2023-01-29T20:17:52.271Z,100577.63
2023-01-29T20:20:25.321Z,100581.63
2023-01-29T20:25:54.334Z,100589.38
2023-01-29T20:28:37.033Z,100584.56
2023-01-29T20:31:12.578Z,100581.16
2023-01-29T20:33:42.203Z,100574.03
2023-01-29T20:36:18.215Z,100566.66
2023-01-29T20:41:43.380Z,100572.81
2023-01-29T20:44:29.094Z,100567.84
2023-01-29T20:47:10.245Z,100576.53
2023-01-29T20:50:06.293Z,100574.44
2023-01-29T20:52:39.757Z,100586.22
2023-01-29T20:55:11.852Z,100583.53
2023-01-29T20:57:41.940Z,100572.63
2023-01-29T21:00:41.377Z,100583.91
2023-01-29T21:03:16.706Z,100587.22
2023-01-29T21:06:24.024Z,100591.81
2023-01-29T21:09:03.864Z,100592.56
2023-01-29T21:11:37.063Z,100589.13
2023-01-29T21:14:15.849Z,100579.91
2023-01-29T21:16:58.072Z,100587.63
2023-01-29T21:19:29.153Z,100581.88
2023-01-29T21:22:12.592Z,100580.66
2023-01-29T21:24:47.804Z,100585.41
2023-01-29T21:27:33.123Z,100570.75
2023-01-29T21:30:06.135Z,100581.81
2023-01-29T21:32:38.099Z,100582.19
2023-01-29T21:35:11.637Z,100584.16
2023-01-29T21:37:55.372Z,100580.19
2023-01-29T21:40:34.718Z,100563.44
2023-01-29T21:43:14.594Z,100575.16
2023-01-29T21:45:48.737Z,100579.31
2023-01-29T21:48:25.530Z,100572.78
2023-01-29T21:51:05.420Z,100573.63
2023-01-29T21:53:34.015Z,100578.09
2023-01-29T21:56:03.249Z,100568.81
2023-01-29T21:58:30.539Z,100570.63
2023-01-29T22:01:35.817Z,100550.31
2023-01-29T22:03:47.355Z,100554.00
2023-01-29T22:06:15.646Z,100567.75
2023-01-29T22:08:43.059Z,100554.94
2023-01-29T22:11:11.306Z,100562.00
2023-01-29T22:13:38.682Z,100560.78
2023-01-29T22:16:07.793Z,100558.03
2023-01-29T22:18:38.587Z,100550.28
2023-01-29T22:21:21.661Z,100547.53
2023-01-29T22:23:49.619Z,100556.81
2023-01-29T22:26:18.001Z,100549.78
2023-01-29T22:28:45.289Z,100556.91
2023-01-29T22:31:12.963Z,100551.97
2023-01-29T22:33:40.465Z,100550.63
2023-01-29T22:36:08.294Z,100543.03
2023-01-29T22:38:35.730Z,100541.16
2023-01-29T22:41:04.646Z,100549.84
2023-01-29T22:43:32.020Z,100529.56
2023-01-29T22:45:59.507Z,100527.84
2023-01-29T22:48:28.380Z,100528.97
2023-01-29T22:51:09.467Z,100526.72
2023-01-29T22:53:41.029Z,100533.84
2023-01-29T22:56:11.936Z,100532.16
2023-01-29T22:58:39.396Z,100527.31
2023-01-29T23:01:07.670Z,100519.59
2023-01-29T23:03:36.263Z,100528.16
2023-01-29T23:06:04.178Z,100518.13
2023-01-29T23:08:33.220Z,100526.06
2023-01-29T23:11:14.977Z,100529.19
2023-01-29T23:13:48.016Z,100513.88
2023-01-29T23:16:16.813Z,100519.44
2023-01-29T23:18:45.277Z,100512.19
2023-01-29T23:21:12.887Z,100519.81
2023-01-29T23:23:40.447Z,100529.13
2023-01-29T23:26:28.388Z,100510.19
2023-01-29T23:28:56.481Z,100510.81
2023-01-29T23:31:25.359Z,100519.03
2023-01-29T23:33:52.602Z,100507.78
2023-01-29T23:36:20.117Z,100502.00
2023-01-29T23:38:47.269Z,100500.09
2023-01-29T23:41:14.723Z,100498.53
2023-01-29T23:43:42.193Z,100493.09
2023-01-29T23:46:09.986Z,100484.41
2023-01-29T23:48:39.610Z,100490.78
2023-01-29T23:51:07.195Z,100497.91
2023-01-29T23:53:35.087Z,100460.69
2023-01-29T23:56:04.935Z,100466.13
2023-01-29T23:58:32.909Z,100467.44
